createdAt,value
2023-05-14T00:00:41.695Z,99.99
2023-05-14T00:01:41.731Z,99.99
2023-05-14T00:02:41.808Z,99.99
2023-05-14T00:03:41.882Z,99.99
2023-05-14T00:04:41.895Z,99.99
2023-05-14T00:05:41.856Z,99.99
2023-05-14T00:06:41.855Z,99.99
2023-05-14T00:07:41.895Z,99.99
2023-05-14T00:08:41.908Z,99.99
2023-05-14T00:09:41.945Z,99.99
2023-05-14T00:10:41.973Z,99.99
2023-05-14T00:11:42.004Z,99.99
2023-05-14T00:12:42.020Z,99.99
2023-05-14T00:13:42.047Z,99.99
2023-05-14T00:14:42.078Z,99.99
2023-05-14T00:15:42.131Z,99.99
2023-05-14T00:16:42.125Z,99.99
2023-05-14T00:17:42.182Z,99.99
2023-05-14T00:18:42.251Z,99.99
2023-05-14T00:19:42.204Z,99.99
2023-05-14T00:20:42.233Z,99.99
2023-05-14T00:21:42.278Z,99.99
2023-05-14T00:22:42.285Z,99.99
2023-05-14T00:23:42.310Z,99.99
2023-05-14T00:24:42.341Z,99.99
2023-05-14T00:25:42.369Z,99.99
2023-05-14T00:26:42.391Z,99.99
2023-05-14T00:27:42.420Z,99.99
2023-05-14T00:28:42.448Z,99.99
2023-05-14T00:29:42.515Z,99.99
2023-05-14T00:30:42.500Z,99.99
2023-05-14T00:31:42.624Z,99.99
2023-05-14T00:32:42.576Z,99.99
2023-05-14T00:33:42.581Z,99.99
2023-05-14T00:34:42.606Z,99.99
2023-05-14T00:35:42.635Z,99.99
2023-05-14T00:36:42.662Z,99.99
2023-05-14T00:37:42.711Z,99.99
2023-05-14T00:38:42.718Z,99.99
2023-05-14T00:39:42.742Z,99.99
2023-05-14T00:40:42.768Z,99.99
2023-05-14T00:41:42.800Z,99.99
2023-05-14T00:42:42.820Z,99.99
2023-05-14T00:43:42.849Z,99.99
2023-05-14T00:44:42.887Z,99.99
2023-05-14T00:45:42.906Z,99.99
2023-05-14T00:46:43.001Z,99.99
2023-05-14T00:47:42.984Z,99.99
2023-05-14T00:48:42.981Z,99.99
2023-05-14T00:49:43.016Z,99.99
2023-05-14T00:50:43.050Z,99.99
2023-05-14T00:51:43.073Z,99.99
2023-05-14T00:52:43.092Z,99.99
2023-05-14T00:53:43.141Z,99.99
2023-05-14T00:54:43.146Z,99.99
2023-05-14T00:55:43.172Z,99.99
2023-05-14T00:56:43.197Z,99.99
2023-05-14T00:57:43.229Z,99.99
2023-05-14T00:58:43.266Z,99.99
2023-05-14T00:59:43.277Z,99.99
2023-05-14T01:00:43.408Z,99.99
2023-05-14T01:01:43.330Z,99.99
2023-05-14T01:02:43.567Z,99.99
2023-05-14T01:03:43.468Z,99.99
2023-05-14T01:04:43.414Z,99.99
2023-05-14T01:05:43.442Z,99.99
2023-05-14T01:06:43.461Z,99.99
2023-05-14T01:07:43.489Z,99.99
2023-05-14T01:08:43.515Z,99.99
2023-05-14T01:09:43.577Z,99.99
2023-05-14T01:10:43.567Z,99.99
2023-05-14T01:11:43.598Z,99.99
2023-05-14T01:12:43.621Z,99.99
2023-05-14T01:13:43.653Z,99.99
2023-05-14T01:14:43.676Z,99.99
2023-05-14T01:15:43.701Z,99.99
2023-05-14T01:16:43.794Z,99.99
2023-05-14T01:17:43.786Z,99.99
2023-05-14T01:18:43.860Z,99.99
2023-05-14T01:19:43.859Z,99.99
2023-05-14T01:20:43.833Z,99.99
2023-05-14T01:21:43.873Z,99.99
2023-05-14T01:22:43.886Z,99.99
2023-05-14T01:23:43.919Z,99.99
2023-05-14T01:24:43.942Z,99.99
2023-05-14T01:25:43.989Z,99.99
2023-05-14T01:26:43.991Z,99.99
2023-05-14T01:27:44.018Z,99.99
2023-05-14T01:28:44.046Z,99.99
2023-05-14T01:29:44.071Z,99.99
2023-05-14T01:30:44.097Z,99.99
2023-05-14T01:31:44.203Z,99.99
2023-05-14T01:32:44.153Z,99.99
2023-05-14T01:33:44.177Z,99.99
2023-05-14T01:34:44.203Z,99.99
2023-05-14T01:35:44.234Z,99.99
2023-05-14T01:36:44.273Z,99.99
2023-05-14T01:37:44.336Z,99.99
2023-05-14T01:38:44.306Z,99.99
2023-05-14T01:39:44.336Z,99.99
2023-05-14T01:40:44.357Z,99.99
2023-05-14T01:41:44.407Z,99.99
2023-05-14T01:42:44.453Z,99.99
2023-05-14T01:43:45.444Z,99.99
2023-05-14T01:44:45.269Z,99.99
2023-05-14T01:45:44.542Z,99.99
2023-05-14T01:46:44.559Z,99.99
2023-05-14T01:47:44.555Z,99.99
2023-05-14T01:48:44.559Z,99.99
2023-05-14T01:49:44.586Z,99.99
2023-05-14T01:50:44.610Z,99.99
2023-05-14T01:51:44.657Z,99.99
2023-05-14T01:52:44.677Z,99.99
2023-05-14T01:53:44.693Z,99.99
2023-05-14T01:54:44.714Z,99.99
2023-05-14T01:55:44.744Z,99.99
2023-05-14T01:56:44.771Z,99.99
2023-05-14T01:57:44.816Z,99.99
2023-05-14T01:58:51.139Z,99.99
2023-05-14T01:59:44.848Z,99.99
2023-05-14T02:00:44.872Z,99.99
2023-05-14T02:01:44.905Z,99.99
2023-05-14T02:02:44.975Z,99.99
2023-05-14T02:03:45.040Z,99.99
2023-05-14T02:04:44.989Z,99.99
2023-05-14T02:06:32.555Z,99.99
2023-05-14T02:11:27.837Z,99.99
2023-05-14T02:12:27.856Z,99.99
2023-05-14T02:13:27.903Z,99.99
2023-05-14T02:14:27.905Z,99.99
2023-05-14T02:15:27.951Z,99.99
2023-05-14T02:16:29.455Z,99.99
2023-05-14T02:17:28.071Z,99.99
2023-05-14T02:19:15.758Z,99.99
2023-05-14T02:20:15.592Z,99.99
2023-05-14T02:21:15.624Z,99.99
2023-05-14T02:22:18.568Z,99.99
2023-05-14T02:23:15.666Z,99.99
2023-05-14T02:24:19.528Z,99.99
2023-05-14T02:25:15.970Z,99.99
2023-05-14T02:26:15.743Z,99.99
2023-05-14T02:27:16.575Z,99.99
2023-05-14T02:28:15.791Z,99.99
2023-05-14T02:29:15.832Z,99.99
2023-05-14T02:30:15.838Z,99.99
2023-05-14T02:31:17.297Z,99.99
2023-05-14T02:32:15.909Z,99.99
2023-05-14T02:34:08.484Z,99.99
2023-05-14T02:35:08.511Z,99.99
2023-05-14T02:37:48.851Z,99.99
2023-05-14T02:38:49.268Z,99.99
2023-05-14T02:41:46.692Z,99.99
2023-05-14T02:42:49.138Z,99.99
2023-05-14T02:43:46.553Z,99.99
2023-05-14T02:44:46.607Z,99.99
2023-05-14T02:45:46.597Z,99.99
2023-05-14T02:47:39.194Z,99.99
2023-05-14T02:48:39.429Z,99.99
2023-05-14T02:49:39.234Z,99.99
2023-05-14T02:50:39.262Z,99.99
2023-05-14T02:51:39.289Z,99.99
2023-05-14T02:52:39.321Z,99.99
2023-05-14T02:53:39.337Z,99.99
2023-05-14T02:54:39.382Z,99.99
2023-05-14T02:58:39.668Z,99.99
2023-05-14T02:59:39.490Z,99.99
2023-05-14T03:00:39.544Z,99.99
2023-05-14T03:01:39.544Z,99.99
2023-05-14T03:02:39.666Z,99.99
2023-05-14T03:03:39.611Z,99.99
2023-05-14T03:04:39.625Z,99.99
2023-05-14T03:05:39.648Z,99.99
2023-05-14T03:06:39.691Z,99.99
2023-05-14T03:07:39.709Z,99.99
2023-05-14T03:08:39.726Z,99.99
2023-05-14T03:09:39.761Z,99.99
2023-05-14T03:10:39.800Z,99.99
2023-05-14T03:11:39.815Z,99.99
2023-05-14T03:12:39.847Z,99.99
2023-05-14T03:13:39.856Z,99.99
2023-05-14T03:14:40.085Z,99.99
2023-05-14T03:15:40.236Z,99.99
2023-05-14T03:16:40.010Z,99.99
2023-05-14T03:22:40.289Z,99.99
2023-05-14T03:23:40.535Z,99.99
2023-05-14T03:24:40.154Z,99.99
2023-05-14T03:25:40.493Z,99.99
2023-05-14T03:26:40.616Z,99.99
2023-05-14T03:28:40.673Z,99.99
2023-05-14T03:29:40.271Z,99.99
2023-05-14T03:30:40.349Z,99.99
2023-05-14T03:31:40.321Z,99.99
2023-05-14T03:33:53.201Z,99.99
2023-05-14T03:34:54.195Z,99.99
2023-05-14T03:35:53.002Z,99.99
2023-05-14T03:36:53.030Z,99.99
2023-05-14T03:37:53.083Z,99.99
2023-05-14T03:38:55.701Z,99.99
2023-05-14T03:39:53.102Z,99.99
2023-05-14T03:40:53.130Z,99.99
2023-05-14T03:43:30.832Z,99.99
2023-05-14T03:44:30.860Z,99.99
2023-05-14T03:45:30.881Z,99.99
2023-05-14T03:46:30.917Z,99.99
2023-05-14T03:47:31.021Z,99.99
2023-05-14T03:48:31.817Z,99.99
2023-05-14T03:49:31.004Z,99.99
2023-05-14T03:52:00.066Z,99.99
2023-05-14T03:53:02.570Z,99.99
2023-05-14T03:54:41.287Z,99.99
2023-05-14T03:55:41.272Z,99.99
2023-05-14T03:56:41.314Z,99.99
2023-05-14T03:57:41.326Z,99.99
2023-05-14T03:58:41.346Z,99.99
2023-05-14T03:59:41.374Z,99.99
2023-05-14T04:00:41.401Z,99.99
2023-05-14T04:01:41.445Z,99.99
2023-05-14T04:02:41.520Z,99.99
2023-05-14T04:03:41.638Z,99.99
2023-05-14T04:04:41.573Z,99.99
2023-05-14T04:05:41.542Z,99.99
2023-05-14T04:06:41.554Z,99.99
2023-05-14T04:07:41.592Z,99.99
2023-05-14T04:08:41.612Z,99.99
2023-05-14T04:09:41.632Z,99.99
2023-05-14T04:10:41.656Z,99.99
2023-05-14T04:11:41.683Z,99.99
2023-05-14T04:12:41.712Z,99.99
2023-05-14T04:13:41.734Z,99.99
2023-05-14T04:14:41.760Z,99.99
2023-05-14T04:15:41.788Z,99.99
2023-05-14T04:16:41.933Z,99.99
2023-05-14T04:17:41.906Z,99.99
2023-05-14T04:18:41.891Z,99.99
2023-05-14T04:19:41.895Z,99.99
2023-05-14T04:20:41.935Z,99.99
2023-05-14T04:21:41.944Z,99.99
2023-05-14T04:22:41.971Z,99.99
2023-05-14T04:23:41.998Z,99.99
2023-05-14T04:24:42.030Z,99.99
2023-05-14T04:25:42.050Z,99.99
2023-05-14T04:26:42.086Z,99.99
2023-05-14T04:27:42.099Z,99.99
2023-05-14T04:28:42.122Z,99.99
2023-05-14T04:29:42.151Z,99.99
2023-05-14T04:30:42.176Z,99.99
2023-05-14T04:31:42.234Z,99.99
2023-05-14T04:32:42.277Z,99.99
2023-05-14T04:33:42.253Z,99.99
2023-05-14T04:34:42.275Z,99.99
2023-05-14T04:35:42.304Z,99.99
2023-05-14T04:36:42.344Z,99.99
2023-05-14T04:37:42.358Z,99.99
2023-05-14T04:38:42.384Z,99.99
2023-05-14T04:39:42.407Z,99.99
2023-05-14T04:40:42.432Z,99.99
2023-05-14T04:41:42.468Z,99.99
2023-05-14T04:42:42.481Z,99.99
2023-05-14T04:43:42.510Z,99.99
2023-05-14T04:44:42.535Z,99.99
2023-05-14T04:45:42.594Z,99.99
2023-05-14T04:46:42.588Z,99.99
2023-05-14T04:47:42.657Z,99.99
2023-05-14T04:48:42.641Z,99.99
2023-05-14T04:49:42.670Z,99.99
2023-05-14T04:50:42.692Z,99.99
2023-05-14T04:51:42.717Z,99.99
2023-05-14T04:52:42.813Z,99.99
2023-05-14T04:53:42.769Z,99.99
2023-05-14T04:54:42.840Z,99.99
2023-05-14T04:55:42.821Z,99.99
2023-05-14T04:56:42.849Z,99.99
2023-05-14T04:57:42.878Z,99.99
2023-05-14T04:58:42.921Z,99.99
2023-05-14T04:59:42.940Z,99.99
2023-05-14T05:00:42.955Z,99.99
2023-05-14T05:01:43.021Z,99.99
2023-05-14T05:02:43.026Z,99.99
2023-05-14T05:03:43.079Z,99.99
2023-05-14T05:04:43.065Z,99.99
2023-05-14T05:05:43.092Z,99.99
2023-05-14T05:06:43.119Z,99.99
2023-05-14T05:07:43.156Z,99.99
2023-05-14T05:08:43.259Z,99.99
2023-05-14T05:09:43.209Z,99.99
2023-05-14T05:10:43.237Z,99.99
2023-05-14T05:11:43.255Z,99.99
2023-05-14T05:12:43.291Z,99.99
2023-05-14T05:13:43.316Z,99.99
2023-05-14T05:14:43.355Z,99.99
2023-05-14T05:15:43.426Z,99.99
2023-05-14T05:16:43.389Z,99.99
2023-05-14T05:17:43.477Z,99.99
2023-05-14T05:18:43.504Z,99.99
2023-05-14T05:19:44.506Z,99.99
2023-05-14T05:20:43.496Z,99.99
2023-05-14T05:21:43.524Z,99.99
2023-05-14T05:22:43.552Z,99.99
2023-05-14T05:23:43.586Z,99.99
2023-05-14T05:24:43.623Z,99.99
2023-05-14T05:25:43.636Z,99.99
2023-05-14T05:26:43.661Z,99.99
2023-05-14T05:27:43.696Z,99.99
2023-05-14T05:28:43.720Z,99.99
2023-05-14T05:29:43.739Z,99.99
2023-05-14T05:30:43.766Z,99.99
2023-05-14T05:31:43.824Z,99.99
2023-05-14T05:32:43.860Z,99.99
2023-05-14T05:33:43.851Z,99.99
2023-05-14T05:34:43.875Z,99.99
2023-05-14T05:35:43.904Z,99.99
2023-05-14T05:36:43.926Z,99.99
2023-05-14T05:37:43.955Z,99.99
2023-05-14T05:38:43.983Z,99.99
2023-05-14T05:39:44.022Z,99.99
2023-05-14T05:40:44.058Z,99.99
2023-05-14T05:41:44.061Z,99.99
2023-05-14T05:42:44.088Z,99.99
2023-05-14T05:43:44.120Z,99.99
2023-05-14T05:44:44.140Z,99.99
2023-05-14T05:45:44.180Z,99.99
2023-05-14T05:46:44.237Z,99.99
2023-05-14T05:47:44.274Z,99.99
2023-05-14T05:48:44.264Z,99.99
2023-05-14T05:49:44.277Z,99.99
2023-05-14T05:50:44.340Z,99.99
2023-05-14T05:51:44.352Z,99.99
2023-05-14T05:52:44.381Z,99.99
2023-05-14T05:53:47.033Z,99.99
2023-05-14T05:58:27.080Z,99.99
2023-05-14T05:59:27.089Z,99.99
2023-05-14T06:00:27.341Z,99.99
2023-05-14T06:01:27.162Z,99.99
2023-05-14T06:02:27.242Z,99.99
2023-05-14T06:03:29.830Z,99.99
2023-05-14T06:04:27.253Z,99.99
2023-05-14T06:05:27.296Z,99.99
2023-05-14T06:06:27.298Z,99.99
2023-05-14T06:07:27.334Z,99.99
2023-05-14T06:08:27.358Z,99.99
2023-05-14T06:09:27.390Z,99.99
2023-05-14T06:10:28.235Z,99.99
2023-05-14T06:11:27.460Z,99.99
2023-05-14T06:12:27.494Z,99.99
2023-05-14T06:13:28.048Z,99.99
2023-05-14T06:14:27.804Z,99.99
2023-05-14T06:16:15.225Z,99.99
2023-05-14T06:17:15.189Z,99.99
2023-05-14T06:18:15.220Z,99.99
2023-05-14T06:19:16.329Z,99.99
2023-05-14T06:21:22.898Z,99.99
2023-05-14T06:22:23.140Z,99.99
2023-05-14T06:23:22.985Z,99.99
2023-05-14T06:24:22.998Z,99.99
2023-05-14T06:25:23.053Z,99.99
2023-05-14T06:32:59.187Z,99.99
2023-05-14T06:33:58.196Z,99.99
2023-05-14T06:34:58.438Z,99.99
2023-05-14T06:35:58.265Z,99.99
2023-05-14T06:36:58.306Z,99.99
2023-05-14T06:37:58.337Z,99.99
2023-05-14T06:38:58.406Z,99.99
2023-05-14T06:39:58.423Z,99.99
2023-05-14T06:40:58.445Z,99.99
2023-05-14T06:41:58.474Z,99.99
2023-05-14T06:42:58.513Z,99.99
2023-05-14T06:43:58.542Z,99.99
2023-05-14T06:44:58.626Z,99.99
2023-05-14T06:46:41.174Z,99.99
2023-05-14T06:47:41.242Z,99.99
2023-05-14T06:48:41.333Z,99.99
2023-05-14T06:49:41.295Z,99.99
2023-05-14T06:50:41.315Z,99.99
2023-05-14T06:51:41.354Z,99.99
2023-05-14T06:52:41.384Z,99.99
2023-05-14T06:53:41.449Z,99.99
2023-05-14T06:56:24.082Z,99.99
2023-05-14T06:57:24.093Z,99.99
2023-05-14T06:58:24.735Z,99.99
2023-05-14T06:59:24.582Z,99.99
2023-05-14T07:01:24.292Z,99.99
2023-05-14T07:02:24.291Z,99.99
2023-05-14T07:04:24.421Z,99.99
2023-05-14T07:08:35.004Z,99.99
2023-05-14T07:09:22.108Z,99.99
2023-05-14T07:10:22.541Z,99.99
2023-05-14T07:12:22.249Z,99.99
2023-05-14T07:15:22.530Z,99.99
2023-05-14T07:16:22.380Z,99.99
2023-05-14T07:17:22.516Z,99.99
2023-05-14T07:18:22.461Z,99.99
2023-05-14T07:19:22.480Z,99.99
2023-05-14T07:20:23.018Z,99.99
2023-05-14T07:21:22.570Z,99.99
2023-05-14T07:22:22.610Z,99.99
2023-05-14T07:24:22.678Z,99.99
2023-05-14T07:25:22.925Z,99.99
2023-05-14T07:26:23.784Z,99.99
2023-05-14T07:29:10.405Z,99.99
2023-05-14T07:30:10.446Z,99.99
2023-05-14T07:32:10.929Z,99.99
2023-05-14T07:35:03.385Z,99.99
2023-05-14T07:36:03.653Z,99.99
2023-05-14T07:37:06.269Z,99.99
2023-05-14T07:38:03.489Z,99.51
2023-05-14T07:39:03.732Z,99.99
2023-05-14T07:40:03.588Z,99.99
2023-05-14T08:11:50.610Z,96.31
2023-05-14T08:12:50.638Z,95.43
2023-05-14T08:13:50.686Z,96.94
2023-05-14T08:14:50.718Z,94.32
2023-05-14T08:16:58.546Z,95.00
2023-05-14T08:17:58.455Z,97.47
2023-05-14T08:18:58.487Z,96.31
2023-05-14T08:19:58.485Z,96.07
2023-05-14T08:20:58.527Z,97.96
2023-05-14T08:21:58.581Z,96.84
2023-05-14T08:22:58.649Z,96.65
2023-05-14T08:23:58.675Z,95.24
2023-05-14T08:24:58.690Z,95.92
2023-05-14T08:25:58.732Z,94.70
2023-05-14T08:26:58.996Z,93.49
2023-05-14T08:27:58.813Z,95.39
2023-05-14T08:28:58.852Z,93.98
2023-05-14T08:29:58.898Z,95.19
2023-05-14T08:30:58.986Z,94.85
2023-05-14T08:32:00.326Z,94.17
2023-05-14T08:32:59.034Z,91.94
2023-05-14T08:34:00.683Z,91.75
2023-05-14T08:34:59.112Z,92.91
2023-05-14T08:35:59.150Z,94.07
2023-05-14T08:37:41.738Z,93.59
2023-05-14T08:38:41.785Z,93.49
2023-05-14T08:39:41.839Z,93.63
2023-05-14T08:41:42.531Z,93.78
2023-05-14T09:37:04.888Z,87.04
2023-05-14T09:38:04.897Z,88.35
2023-05-14T09:39:04.940Z,89.61
2023-05-14T09:40:05.035Z,90.20
2023-05-14T09:41:05.024Z,87.82
2023-05-14T09:42:05.051Z,87.52
2023-05-14T09:43:05.098Z,88.06
2023-05-14T09:44:06.749Z,88.45
2023-05-14T09:45:05.182Z,86.02
2023-05-14T09:46:05.218Z,86.02
2023-05-14T09:47:05.328Z,87.13
2023-05-14T09:49:05.324Z,88.54
2023-05-14T09:51:05.396Z,87.90
2023-05-14T09:52:06.047Z,88.78
2023-05-14T09:53:05.484Z,88.00
2023-05-14T09:54:05.518Z,85.82
2023-05-14T09:55:05.900Z,85.38
2023-05-14T09:56:05.806Z,85.86
2023-05-14T09:58:05.870Z,86.35
2023-05-14T09:59:05.705Z,86.49
2023-05-14T10:00:05.774Z,86.58
2023-05-14T10:01:06.033Z,85.32
2023-05-14T10:04:06.099Z,85.04
2023-05-14T10:06:06.625Z,87.12
2023-05-14T10:07:06.203Z,87.36
2023-05-14T10:08:06.038Z,85.18
2023-05-14T10:09:06.105Z,83.88
2023-05-14T10:11:06.154Z,85.68
2023-05-14T10:12:06.380Z,86.18
2023-05-14T10:13:06.226Z,84.67
2023-05-14T10:14:06.465Z,86.85
2023-05-14T10:16:06.338Z,85.92
2023-05-14T10:17:06.441Z,88.59
2023-05-14T10:18:06.451Z,87.27
2023-05-14T10:19:06.544Z,88.05
2023-05-14T10:20:06.475Z,85.33
2023-05-14T10:25:49.501Z,86.85
2023-05-14T10:26:49.516Z,84.03
2023-05-14T10:27:49.571Z,84.94
2023-05-14T10:28:49.603Z,85.82
2023-05-14T10:29:49.624Z,85.82
2023-05-14T10:31:32.254Z,82.42
2023-05-14T10:32:35.160Z,80.73
2023-05-14T10:33:32.289Z,79.90
2023-05-14T10:34:33.771Z,80.93
2023-05-14T10:36:33.611Z,80.46
2023-05-14T10:37:32.436Z,82.22
2023-05-14T10:40:33.568Z,87.90
2023-05-14T10:42:32.850Z,90.56
2023-05-14T10:43:32.876Z,91.72
2023-05-14T10:44:32.694Z,93.90
2023-05-14T10:45:32.722Z,96.03
2023-05-14T10:46:33.002Z,94.62
2023-05-14T10:47:32.824Z,95.50
2023-05-14T10:49:42.705Z,97.52
2023-05-14T10:50:32.918Z,96.22
2023-05-14T10:51:32.986Z,94.00
2023-05-14T10:52:32.987Z,94.24
2023-05-14T10:53:33.004Z,94.92
2023-05-14T10:54:33.043Z,95.64
2023-05-14T10:56:33.119Z,96.22
2023-05-14T10:57:33.347Z,97.23
2023-05-14T10:58:33.191Z,95.15
2023-05-14T10:59:33.225Z,94.24
2023-05-14T11:01:33.301Z,93.85
2023-05-14T11:02:33.586Z,94.57
2023-05-14T11:03:33.358Z,95.11
2023-05-14T11:06:41.717Z,98.15
2023-05-14T11:07:41.456Z,98.25
2023-05-14T11:08:43.080Z,97.38
2023-05-14T11:15:22.575Z,97.09
2023-05-14T11:16:23.944Z,99.99
2023-05-14T11:18:22.651Z,99.99
2023-05-14T11:19:22.893Z,98.83
2023-05-14T11:21:22.828Z,99.26
2023-05-14T11:23:22.827Z,99.35
2023-05-14T11:24:22.862Z,99.99
2023-05-14T11:26:22.950Z,98.87
2023-05-14T11:28:23.796Z,99.99
2023-05-14T11:29:23.329Z,99.99
2023-05-14T11:31:23.155Z,99.99
2023-05-14T11:32:23.451Z,99.99
2023-05-14T11:37:23.281Z,99.99
2023-05-14T11:38:26.340Z,99.99
2023-05-14T11:39:23.340Z,99.60
2023-05-14T11:40:23.573Z,99.88
2023-05-14T11:41:23.573Z,98.15
2023-05-14T11:42:23.440Z,95.64
2023-05-14T11:43:23.470Z,94.78
2023-05-14T11:44:23.508Z,94.78
2023-05-14T11:45:23.555Z,93.52
2023-05-14T11:46:23.601Z,93.23
2023-05-14T11:47:23.623Z,91.98
2023-05-14T11:48:23.636Z,90.82
2023-05-14T11:49:23.673Z,92.27
2023-05-14T11:50:24.073Z,94.58
2023-05-14T11:51:23.754Z,95.54
2023-05-14T11:52:23.770Z,93.23
2023-05-14T11:53:23.800Z,94.15
2023-05-14T11:54:23.839Z,94.92
2023-05-14T11:55:23.859Z,95.40
2023-05-14T11:56:24.097Z,94.34
2023-05-14T11:57:23.945Z,93.95
2023-05-14T11:58:24.487Z,94.63
2023-05-14T11:59:24.015Z,92.60
2023-05-14T12:00:24.359Z,91.64
2023-05-14T12:01:24.064Z,92.60
2023-05-14T12:02:24.174Z,92.02
2023-05-14T12:04:24.201Z,91.16
2023-05-14T12:05:24.200Z,93.28
2023-05-14T12:06:25.952Z,92.12
2023-05-14T12:08:24.497Z,93.28
2023-05-14T12:10:24.575Z,91.88
2023-05-14T12:13:25.778Z,91.60
2023-05-14T12:14:24.992Z,93.23
2023-05-14T12:15:24.733Z,93.33
2023-05-14T12:16:26.142Z,92.41
2023-05-14T12:18:25.343Z,91.44
2023-05-14T12:23:24.809Z,86.32
2023-05-14T12:26:24.888Z,88.34
2023-05-14T12:27:25.722Z,88.15
2023-05-14T12:28:24.951Z,88.63
2023-05-14T12:31:26.007Z,89.54
2023-05-14T12:33:25.825Z,90.03
2023-05-14T12:35:25.348Z,86.55
2023-05-14T12:36:25.201Z,85.83
2023-05-14T12:37:25.233Z,85.11
2023-05-14T12:38:25.265Z,86.46
2023-05-14T12:39:25.321Z,88.59
2023-05-14T12:40:25.715Z,88.59
2023-05-14T12:41:25.374Z,91.29
2023-05-14T12:42:25.399Z,92.30
2023-05-14T12:43:25.432Z,93.75
2023-05-14T12:44:25.471Z,90.13
2023-05-14T12:45:25.704Z,87.81
2023-05-14T12:46:25.545Z,87.43
2023-05-14T12:49:28.201Z,88.49
2023-05-14T12:50:28.242Z,89.17
2023-05-14T12:51:28.271Z,89.55
2023-05-14T12:53:28.331Z,90.71
2023-05-14T12:54:28.414Z,90.95
2023-05-14T12:55:28.410Z,89.50
2023-05-14T12:56:28.522Z,87.81
2023-05-14T12:57:28.669Z,90.42
2023-05-14T12:58:28.511Z,90.61
2023-05-14T12:59:28.530Z,87.71
2023-05-14T13:00:28.567Z,86.90
2023-05-14T13:01:28.633Z,87.77
2023-05-14T13:02:28.668Z,88.45
2023-05-14T13:03:28.664Z,91.09
2023-05-14T13:04:28.836Z,88.10
2023-05-14T13:05:28.737Z,87.67
2023-05-14T13:06:28.777Z,86.27
2023-05-14T13:07:28.801Z,87.52
2023-05-14T13:08:28.830Z,87.91
2023-05-14T13:09:28.875Z,85.21
2023-05-14T13:10:28.924Z,81.92
2023-05-14T13:11:28.929Z,82.11
2023-05-14T13:12:28.971Z,83.22
2023-05-14T13:13:28.995Z,83.70
2023-05-14T13:14:29.035Z,83.51
2023-05-14T13:15:29.062Z,84.57
2023-05-14T13:16:29.121Z,82.06
2023-05-14T13:17:29.156Z,82.78
2023-05-14T13:18:29.186Z,79.39
2023-05-14T13:19:29.198Z,78.96
2023-05-14T13:20:29.243Z,80.51
2023-05-14T13:21:29.269Z,82.97
2023-05-14T13:22:29.313Z,82.78
2023-05-14T13:23:29.342Z,77.42
2023-05-14T13:24:29.375Z,77.22
2023-05-14T13:25:29.392Z,78.67
2023-05-14T13:26:29.453Z,81.53
2023-05-14T13:27:29.473Z,77.76
2023-05-14T13:28:29.532Z,80.28
2023-05-14T13:29:29.568Z,81.92
2023-05-14T13:30:29.771Z,82.79
2023-05-14T13:32:29.693Z,77.28
2023-05-14T13:33:29.675Z,78.25
2023-05-14T13:34:29.698Z,77.86
2023-05-14T13:35:29.753Z,77.86
2023-05-14T13:37:29.786Z,77.86
2023-05-14T13:38:30.349Z,78.73
2023-05-14T13:39:29.869Z,78.34
2023-05-14T13:40:29.916Z,77.28
2023-05-14T13:41:29.923Z,80.03
2023-05-14T13:42:29.980Z,77.80
2023-05-14T13:44:30.033Z,76.64
2023-05-14T13:45:30.072Z,75.68
2023-05-14T13:46:30.201Z,75.20
2023-05-14T13:47:30.150Z,75.68
2023-05-14T13:48:30.152Z,76.29
2023-05-14T13:49:30.205Z,76.20
2023-05-14T13:50:30.220Z,76.45
2023-05-14T13:51:30.279Z,74.52
2023-05-14T13:52:30.289Z,78.38
2023-05-14T13:53:30.741Z,78.87
2023-05-14T13:54:30.366Z,78.67
2023-05-14T13:55:30.604Z,76.45
2023-05-14T13:56:30.418Z,75.54
2023-05-14T13:57:34.511Z,78.38
2023-05-14T14:00:30.541Z,79.25
2023-05-14T14:01:30.963Z,75.84
2023-05-14T14:02:31.780Z,75.45
2023-05-14T14:04:30.672Z,80.95
2023-05-14T14:06:30.754Z,80.41
2023-05-14T14:08:31.346Z,78.96
2023-05-14T14:10:30.867Z,76.61
2023-05-14T14:11:30.903Z,79.89
2023-05-14T14:13:30.991Z,77.67
2023-05-14T14:15:50.688Z,81.15
2023-05-14T14:16:31.120Z,81.15
2023-05-14T14:20:31.210Z,82.75
2023-05-14T14:21:31.242Z,82.84
2023-05-14T14:22:31.371Z,82.94
2023-05-14T14:23:31.521Z,83.04
2023-05-14T14:24:31.344Z,84.54
2023-05-14T14:25:31.662Z,83.48
2023-05-14T14:26:31.617Z,83.58
2023-05-14T14:27:31.440Z,82.23
2023-05-14T14:28:31.685Z,82.03
2023-05-14T14:29:32.918Z,84.16
2023-05-14T14:31:32.194Z,82.71
2023-05-14T14:32:31.821Z,82.42
2023-05-14T14:34:31.971Z,82.61
2023-05-14T14:36:31.736Z,81.59
2023-05-14T14:39:31.821Z,83.08
2023-05-14T14:41:31.888Z,81.63
2023-05-14T14:42:32.326Z,80.95
2023-05-14T14:44:32.908Z,80.95
2023-05-14T14:45:32.745Z,80.57
2023-05-14T14:48:32.522Z,81.24
2023-05-14T14:49:32.467Z,83.75
2023-05-14T14:52:32.556Z,80.62
2023-05-14T14:54:33.229Z,80.82
2023-05-14T14:55:32.325Z,82.07
2023-05-14T14:56:32.780Z,82.60
2023-05-14T15:04:33.063Z,79.50
2023-05-14T15:08:33.593Z,80.33
2023-05-14T15:09:32.787Z,78.79
2023-05-14T15:11:32.854Z,81.88
2023-05-14T15:15:18.823Z,78.89
2023-05-14T15:20:19.306Z,80.78
2023-05-14T15:25:55.015Z,81.55
2023-05-14T15:26:55.041Z,81.84
2023-05-14T15:27:55.082Z,82.26
2023-05-14T15:28:56.112Z,80.43
2023-05-14T15:33:55.667Z,80.66
2023-05-14T15:36:55.354Z,77.76
2023-05-14T15:37:55.585Z,77.09
2023-05-14T15:58:56.072Z,89.75
2023-05-14T16:01:56.166Z,90.23
2023-05-14T16:05:56.486Z,89.27
2023-05-14T16:06:56.325Z,88.59
2023-05-14T16:09:56.615Z,88.65
2023-05-14T16:11:56.683Z,84.79
2023-05-14T16:14:56.797Z,85.37
2023-05-14T16:28:32.819Z,87.49
2023-05-14T16:29:32.842Z,87.01
2023-05-14T16:30:32.900Z,88.45
2023-05-14T16:31:33.128Z,89.13
2023-05-14T16:32:32.975Z,90.09
2023-05-14T16:33:32.971Z,90.48
2023-05-14T16:35:33.656Z,91.44
2023-05-14T16:38:33.128Z,91.93
2023-05-14T16:39:33.366Z,91.69
2023-05-14T16:40:33.199Z,91.78
2023-05-14T16:41:33.222Z,92.08
2023-05-14T17:20:48.564Z,94.82
2023-05-14T17:31:48.706Z,95.26
2023-05-14T17:40:51.319Z,96.08
2023-05-14T17:44:54.635Z,97.81
2023-05-14T17:45:54.427Z,96.94
2023-05-14T18:00:10.819Z,99.69
2023-05-14T18:01:10.904Z,99.99
2023-05-14T18:02:10.863Z,99.99
2023-05-14T18:03:12.048Z,99.99
2023-05-14T18:04:11.041Z,99.99
2023-05-14T18:05:11.159Z,99.99
2023-05-14T18:06:11.194Z,99.99
2023-05-14T18:07:11.025Z,99.99
2023-05-14T18:08:11.066Z,99.99
2023-05-14T18:09:11.121Z,99.99
2023-05-14T18:10:11.127Z,99.99
2023-05-14T18:11:11.181Z,99.99
2023-05-14T18:12:11.198Z,99.99
2023-05-14T18:13:11.430Z,99.99
2023-05-14T18:14:11.657Z,99.99
2023-05-14T18:15:12.713Z,99.99
2023-05-14T18:16:11.437Z,99.99
2023-05-14T18:18:11.675Z,99.99
2023-05-14T18:24:11.576Z,99.99
2023-05-14T18:25:11.592Z,99.99
2023-05-14T18:26:11.621Z,99.99
2023-05-14T18:27:11.664Z,99.99
2023-05-14T18:28:11.694Z,99.99
2023-05-14T18:29:11.928Z,99.99
2023-05-14T18:30:12.753Z,99.99
2023-05-14T18:31:11.804Z,99.99
2023-05-14T18:32:11.819Z,99.99
2023-05-14T18:33:11.993Z,99.99
2023-05-14T18:35:06.490Z,99.99
2023-05-14T18:36:04.470Z,99.99
2023-05-14T18:37:04.495Z,99.99
2023-05-14T18:38:04.530Z,99.99
2023-05-14T18:39:04.560Z,99.99
2023-05-14T18:40:04.599Z,99.99
2023-05-14T18:41:04.828Z,99.99
2023-05-14T18:42:04.861Z,99.99
2023-05-14T18:43:04.672Z,99.99
2023-05-14T18:46:04.819Z,99.99
2023-05-14T18:49:05.122Z,99.99
2023-05-14T18:50:52.454Z,99.99
2023-05-14T18:51:52.483Z,99.99
2023-05-14T18:52:52.722Z,99.99
2023-05-14T18:55:43.520Z,99.99
2023-05-14T18:56:42.750Z,99.99
2023-05-14T18:57:43.094Z,99.99
2023-05-14T18:59:42.846Z,99.99
2023-05-14T19:01:47.423Z,99.99
2023-05-14T19:07:33.383Z,99.99
2023-05-14T19:08:33.383Z,99.99
2023-05-14T19:09:33.411Z,99.99
2023-05-14T19:10:33.457Z,99.99
2023-05-14T19:11:37.510Z,99.99
2023-05-14T19:14:48.719Z,99.99
2023-05-14T19:15:51.609Z,99.99
2023-05-14T19:17:49.268Z,99.99
2023-05-14T19:34:50.874Z,99.99
2023-05-14T19:36:49.403Z,99.99
2023-05-14T19:47:50.690Z,99.99
2023-05-14T19:49:50.495Z,99.99
2023-05-14T19:56:50.019Z,99.99
2023-05-14T19:57:50.026Z,99.99
2023-05-14T19:58:51.467Z,99.99
2023-05-14T19:59:50.098Z,99.99
2023-05-14T20:15:50.579Z,99.99
2023-05-14T20:20:51.407Z,99.99